createdAt,value
2019-02-23T00:01:19.183Z,27.05
2019-02-23T00:03:48.583Z,27.65
2019-02-23T00:06:29.007Z,27.17
2019-02-23T00:08:48.943Z,27.02
2019-02-23T00:11:18.293Z,28.25
2019-02-23T00:13:47.638Z,27.07
2019-02-23T00:16:16.948Z,27.40
2019-02-23T00:18:46.238Z,28.70
2019-02-23T00:21:15.559Z,28.52
2019-02-23T00:23:44.895Z,28.85
2019-02-23T00:26:14.230Z,29.05
2019-02-23T00:28:43.572Z,29.12
2019-02-23T00:31:12.861Z,28.67
2019-02-23T00:33:42.176Z,28.45
2019-02-23T00:36:11.476Z,29.30
2019-02-23T00:38:40.775Z,28.98
2019-02-23T00:41:10.053Z,29.10
2019-02-23T00:43:39.347Z,29.40
2019-02-23T00:46:08.747Z,28.83
2019-02-23T00:48:38.061Z,29.45
2019-02-23T00:51:07.335Z,29.18
2019-02-23T00:53:36.673Z,28.77
2019-02-23T00:56:05.954Z,28.10
2019-02-23T00:58:35.250Z,28.42
2019-02-23T01:01:04.670Z,28.53
2019-02-23T01:03:34.037Z,30.05
2019-02-23T01:06:03.374Z,29.67
2019-02-23T01:08:32.709Z,28.62
2019-02-23T01:11:02.011Z,29.55
2019-02-23T01:13:31.346Z,30.08
2019-02-23T01:16:00.628Z,29.10
2019-02-23T01:18:29.963Z,29.45
2019-02-23T01:20:59.310Z,28.23
2019-02-23T01:23:28.636Z,28.77
2019-02-23T01:25:57.959Z,29.18
2019-02-23T01:28:27.237Z,29.42
2019-02-23T01:30:56.530Z,29.42
2019-02-23T01:33:25.839Z,29.77
2019-02-23T01:35:55.186Z,28.62
2019-02-23T01:38:24.482Z,28.20
2019-02-23T01:40:53.798Z,28.42
2019-02-23T01:43:23.071Z,29.72
2019-02-23T01:45:52.387Z,28.30
2019-02-23T01:48:21.658Z,28.62
2019-02-23T01:50:50.974Z,28.42
2019-02-23T01:53:20.243Z,29.10
2019-02-23T01:55:49.558Z,28.27
2019-02-23T01:58:18.917Z,28.60
2019-02-23T02:00:48.337Z,27.93
2019-02-23T02:03:17.644Z,29.07
2019-02-23T02:05:47.043Z,27.85
2019-02-23T02:08:16.311Z,28.45
2019-02-23T02:10:45.624Z,28.62
2019-02-23T02:13:14.926Z,27.67
2019-02-23T02:15:44.147Z,27.87
2019-02-23T02:18:13.460Z,28.52
2019-02-23T02:20:42.766Z,28.35
2019-02-23T02:23:12.095Z,27.17
2019-02-23T02:25:41.511Z,27.85
2019-02-23T02:28:10.859Z,27.90
2019-02-23T02:30:40.067Z,27.62
2019-02-23T02:33:09.401Z,29.12
2019-02-23T02:35:38.694Z,28.05
2019-02-23T02:38:07.990Z,28.62
2019-02-23T02:40:37.248Z,29.23
2019-02-23T02:43:06.517Z,28.00
2019-02-23T02:45:35.775Z,28.80
2019-02-23T02:48:05.069Z,28.02
2019-02-23T02:50:34.529Z,28.98
2019-02-23T02:53:03.913Z,29.32
2019-02-23T02:55:33.200Z,28.55
2019-02-23T02:58:02.552Z,29.00
2019-02-23T03:00:31.900Z,29.52
2019-02-23T03:03:01.205Z,28.45
2019-02-23T03:05:30.475Z,29.48
2019-02-23T03:07:59.780Z,31.62
2019-02-23T03:10:29.139Z,29.27
2019-02-23T03:12:58.405Z,30.00
2019-02-23T03:15:27.691Z,29.05
2019-02-23T03:17:56.971Z,29.10
2019-02-23T03:20:36.277Z,28.77
2019-02-23T03:22:57.238Z,27.85
2019-02-23T03:25:26.560Z,30.30
2019-02-23T03:27:55.829Z,29.45
2019-02-23T03:30:25.248Z,29.20
2019-02-23T03:32:54.494Z,28.38
2019-02-23T03:35:23.850Z,29.87
2019-02-23T03:37:53.125Z,29.90
2019-02-23T03:40:22.413Z,30.32
2019-02-23T03:42:51.674Z,30.52
2019-02-23T03:45:20.969Z,31.57
2019-02-23T03:47:50.231Z,30.37
2019-02-23T03:50:19.516Z,30.53
2019-02-23T03:52:48.830Z,30.25
2019-02-23T03:55:18.103Z,29.00
2019-02-23T03:57:47.382Z,31.23
2019-02-23T04:00:16.671Z,29.53
2019-02-23T04:02:46.008Z,30.10
2019-02-23T04:05:15.298Z,29.77
2019-02-23T04:07:44.553Z,30.20
2019-02-23T04:10:13.932Z,30.07
2019-02-23T04:12:43.178Z,31.30
2019-02-23T04:15:12.502Z,30.64
2019-02-23T04:17:41.758Z,30.52
2019-02-23T04:20:11.039Z,30.70
2019-02-23T04:22:40.341Z,31.37
2019-02-23T04:25:09.616Z,31.50
2019-02-23T04:27:38.918Z,31.12
2019-02-23T04:30:08.302Z,31.80
2019-02-23T04:32:37.601Z,31.85
2019-02-23T04:35:06.897Z,30.00
2019-02-23T04:37:36.171Z,31.33
2019-02-23T04:40:05.839Z,29.87
2019-02-23T04:42:35.145Z,31.33
2019-02-23T04:45:04.634Z,32.23
2019-02-23T04:47:33.930Z,31.60
2019-02-23T04:50:03.200Z,30.88
2019-02-23T04:52:32.463Z,31.05
2019-02-23T04:55:01.728Z,30.62
2019-02-23T04:57:31.024Z,30.92
2019-02-23T05:00:00.349Z,30.25
2019-02-23T05:02:29.746Z,30.62
2019-02-23T05:04:59.069Z,30.12
2019-02-23T05:07:28.342Z,29.48
2019-02-23T05:09:57.621Z,30.10
2019-02-23T05:12:28.229Z,29.00
2019-02-23T05:14:57.575Z,29.67
2019-02-23T05:17:26.858Z,30.43
2019-02-23T05:19:56.138Z,31.50
2019-02-23T05:22:25.417Z,30.88
2019-02-23T05:24:54.748Z,33.28
2019-02-23T05:27:24.049Z,32.03
2019-02-23T05:29:53.318Z,31.75
2019-02-23T05:32:22.641Z,31.40
2019-02-23T05:34:51.917Z,30.32
2019-02-23T05:37:21.233Z,28.67
2019-02-23T05:39:50.538Z,29.45
2019-02-23T05:42:19.847Z,30.08
2019-02-23T05:44:49.150Z,29.00
2019-02-23T05:47:18.408Z,29.72
2019-02-23T05:49:47.736Z,31.68
2019-02-23T05:52:16.992Z,29.82
2019-02-23T05:54:46.308Z,29.42
2019-02-23T05:57:15.614Z,29.67
2019-02-23T05:59:45.049Z,30.97
2019-02-23T06:02:14.392Z,28.67
2019-02-23T06:04:43.672Z,28.92
2019-02-23T06:07:12.994Z,30.20
2019-02-23T06:09:42.294Z,27.27
2019-02-23T06:12:11.607Z,28.45
2019-02-23T06:14:40.970Z,29.25
2019-02-23T06:17:10.271Z,29.98
2019-02-23T06:19:39.668Z,29.18
2019-02-23T06:22:08.950Z,29.55
2019-02-23T06:24:38.258Z,29.50
2019-02-23T06:27:07.555Z,29.65
2019-02-23T06:29:36.962Z,29.20
2019-02-23T06:32:06.235Z,28.98
2019-02-23T06:34:35.610Z,30.25
2019-02-23T06:37:04.977Z,30.57
2019-02-23T06:39:34.349Z,30.35
2019-02-23T06:42:03.630Z,29.23
2019-02-23T06:44:33.038Z,30.00
2019-02-23T06:47:02.369Z,29.30
2019-02-23T06:49:31.642Z,31.93
2019-02-23T06:52:04.227Z,31.35
2019-02-23T06:54:31.986Z,30.40
2019-02-23T06:57:01.356Z,30.50
2019-02-23T06:59:30.722Z,30.20
2019-02-23T07:02:00.150Z,29.75
2019-02-23T07:04:29.426Z,29.60
2019-02-23T07:06:58.753Z,30.15
2019-02-23T07:09:28.071Z,30.72
2019-02-23T07:11:57.456Z,32.93
2019-02-23T07:14:26.744Z,31.37
2019-02-23T07:16:56.047Z,29.12
2019-02-23T07:19:25.422Z,29.80
2019-02-23T07:21:54.734Z,30.02
2019-02-23T07:24:24.018Z,29.05
2019-02-23T07:26:53.318Z,30.48
2019-02-23T07:29:22.634Z,29.95
2019-02-23T07:31:51.962Z,29.60
2019-02-23T07:34:21.243Z,30.27
2019-02-23T07:36:50.520Z,29.27
2019-02-23T07:39:19.798Z,30.35
2019-02-23T07:41:49.110Z,29.27
2019-02-23T07:44:18.461Z,29.25
2019-02-23T07:46:47.934Z,29.18
2019-02-23T07:49:17.424Z,27.25
2019-02-23T07:51:46.727Z,27.50
2019-02-23T07:54:15.987Z,26.62
2019-02-23T07:56:45.324Z,26.50
2019-02-23T07:59:14.653Z,25.80
2019-02-23T08:01:44.158Z,25.15
2019-02-23T08:04:13.421Z,24.30
2019-02-23T08:06:42.688Z,24.45
2019-02-23T08:09:12.377Z,23.57
2019-02-23T08:11:41.816Z,23.70
2019-02-23T08:14:11.160Z,23.05
2019-02-23T08:16:40.446Z,22.40
2019-02-23T08:19:09.761Z,21.75
2019-02-23T08:21:39.077Z,20.23
2019-02-23T08:24:08.469Z,21.05
2019-02-23T08:26:37.811Z,19.90
2019-02-23T08:29:07.175Z,18.90
2019-02-23T08:31:36.524Z,19.40
2019-02-23T08:34:06.008Z,18.57
2019-02-23T08:36:35.438Z,18.30
2019-02-23T08:39:05.323Z,19.50
2019-02-23T08:41:34.641Z,18.65
2019-02-23T08:44:03.951Z,18.40
2019-02-23T08:46:33.293Z,18.50
2019-02-23T08:49:03.763Z,17.90
2019-02-23T08:51:33.029Z,19.15
2019-02-23T08:54:02.352Z,19.32
2019-02-23T08:56:34.009Z,18.90
2019-02-23T08:59:03.332Z,18.75
2019-02-23T09:01:32.725Z,18.27
2019-02-23T09:04:02.326Z,18.90
2019-02-23T09:06:31.945Z,18.60
2019-02-23T09:09:01.326Z,17.85
2019-02-23T09:11:33.693Z,17.32
2019-02-23T09:14:03.292Z,17.10
2019-02-23T09:16:32.794Z,16.45
2019-02-23T09:19:02.098Z,15.72
2019-02-23T09:21:32.988Z,15.75
2019-02-23T09:24:02.377Z,15.83
2019-02-23T09:26:31.745Z,15.23
2019-02-23T09:29:06.410Z,15.48
2019-02-23T09:31:35.835Z,15.80
2019-02-23T09:34:05.412Z,15.70
2019-02-23T09:36:34.764Z,15.90
2019-02-23T09:39:04.673Z,16.45
2019-02-23T09:41:34.003Z,15.90
2019-02-23T09:44:03.302Z,16.05
2019-02-23T09:46:32.664Z,15.08
2019-02-23T09:49:01.942Z,15.63
2019-02-23T09:51:31.341Z,14.90
2019-02-23T09:54:00.647Z,14.78
2019-02-23T09:56:29.937Z,15.30
2019-02-23T09:58:59.382Z,14.47
2019-02-23T10:01:28.878Z,14.70
2019-02-23T10:03:58.169Z,14.33
2019-02-23T10:06:27.481Z,14.83
2019-02-23T10:08:56.771Z,14.78
2019-02-23T10:11:26.064Z,14.73
2019-02-23T10:13:55.391Z,14.60
2019-02-23T10:16:24.727Z,15.00
2019-02-23T10:18:54.099Z,14.75
2019-02-23T10:21:23.425Z,14.13
2019-02-23T10:23:52.771Z,13.88
2019-02-23T10:26:22.099Z,14.93
2019-02-23T10:28:51.583Z,15.43
2019-02-23T10:31:20.941Z,14.98
2019-02-23T10:33:50.229Z,14.43
2019-02-23T10:36:19.608Z,15.53
2019-02-23T10:38:48.957Z,23.45
2019-02-23T10:41:18.305Z,22.60
2019-02-23T10:43:47.649Z,22.45
2019-02-23T10:46:17.028Z,15.80
2019-02-23T10:48:46.379Z,25.30
2019-02-23T10:51:15.705Z,17.10
2019-02-23T10:53:45.111Z,18.55
2019-02-23T10:56:14.476Z,15.35
2019-02-23T10:58:43.764Z,15.38
2019-02-23T11:01:13.256Z,37.23
2019-02-23T11:03:42.617Z,16.05
2019-02-23T11:06:11.965Z,34.60
2019-02-23T11:08:41.278Z,54.93
2019-02-23T11:11:10.639Z,17.95
2019-02-23T11:13:39.952Z,17.42
2019-02-23T11:16:09.441Z,21.75
2019-02-23T11:18:38.860Z,44.08
2019-02-23T11:21:08.203Z,29.40
2019-02-23T11:23:44.228Z,35.48
2019-02-23T11:26:08.697Z,19.48
2019-02-23T11:28:38.055Z,18.50
2019-02-23T11:31:07.387Z,14.33
2019-02-23T11:33:36.711Z,14.78
2019-02-23T11:36:06.085Z,24.70
2019-02-23T11:38:35.397Z,13.05
2019-02-23T11:41:04.755Z,16.23
2019-02-23T11:43:34.117Z,14.03
2019-02-23T11:46:03.460Z,45.60
2019-02-23T11:48:32.821Z,14.85
2019-02-23T11:51:02.146Z,13.22
2019-02-23T11:53:31.511Z,13.55
2019-02-23T11:56:00.971Z,14.95
2019-02-23T11:58:30.326Z,16.75
2019-02-23T12:00:59.686Z,27.62
2019-02-23T12:03:29.047Z,36.85
2019-02-23T12:05:58.363Z,11.75
2019-02-23T12:08:27.753Z,19.05
2019-02-23T12:10:57.048Z,12.05
2019-02-23T12:13:26.399Z,11.30
2019-02-23T12:15:55.707Z,22.60
2019-02-23T12:18:25.019Z,15.60
2019-02-23T12:20:54.342Z,20.40
2019-02-23T12:23:23.657Z,25.05
2019-02-23T12:25:53.006Z,44.95
2019-02-23T12:28:22.417Z,16.15
2019-02-23T12:30:51.803Z,40.88
2019-02-23T12:33:21.154Z,15.75
2019-02-23T12:35:50.466Z,24.35
2019-02-23T12:38:19.859Z,50.98
2019-02-23T12:40:49.203Z,17.57
2019-02-23T12:43:18.589Z,11.10
2019-02-23T12:45:47.888Z,12.47
2019-02-23T12:48:17.186Z,16.20
2019-02-23T12:50:46.527Z,21.45
2019-02-23T12:53:15.938Z,9.95
2019-02-23T12:55:48.643Z,14.83
2019-02-23T12:58:17.965Z,9.00
2019-02-23T13:00:47.299Z,7.72
2019-02-23T13:03:16.576Z,8.28
2019-02-23T13:05:45.896Z,7.03
2019-02-23T13:08:15.215Z,9.43
2019-02-23T13:10:44.649Z,8.70
2019-02-23T13:13:32.223Z,6.55
2019-02-23T13:16:19.185Z,6.55
2019-02-23T13:19:47.786Z,14.78
2019-02-23T13:22:47.464Z,9.60
2019-02-23T13:25:48.277Z,42.07
2019-02-23T13:28:39.920Z,18.40
2019-02-23T13:31:46.028Z,22.27
2019-02-23T13:35:01.831Z,51.50
2019-02-23T13:37:46.476Z,8.70
2019-02-23T13:40:46.607Z,6.00
2019-02-23T13:43:32.166Z,6.70
2019-02-23T13:46:10.976Z,6.10
2019-02-23T13:49:48.490Z,6.40
2019-02-23T13:52:45.286Z,5.62
2019-02-23T13:55:35.311Z,5.93
2019-02-23T13:58:10.900Z,6.62
2019-02-23T14:01:06.341Z,6.97
2019-02-23T14:04:00.723Z,6.65
2019-02-23T14:07:13.860Z,6.33
2019-02-23T14:10:17.867Z,6.12
2019-02-23T14:13:26.515Z,6.60
2019-02-23T14:16:30.771Z,6.78
2019-02-23T14:19:49.766Z,6.90
2019-02-23T14:22:36.569Z,6.00
2019-02-23T14:26:01.939Z,6.65
2019-02-23T14:28:54.379Z,6.67
2019-02-23T14:31:49.148Z,6.58
2019-02-23T14:34:55.279Z,6.78
2019-02-23T14:38:23.952Z,6.80
2019-02-23T14:41:28.095Z,6.67
2019-02-23T14:44:26.050Z,6.60
2019-02-23T14:47:45.267Z,6.85
2019-02-23T14:50:58.006Z,6.80
2019-02-23T14:54:04.244Z,7.23
2019-02-23T14:57:17.158Z,6.97
2019-02-23T15:00:33.423Z,11.75
2019-02-23T15:03:57.594Z,23.30
2019-02-23T15:06:51.090Z,7.15
2019-02-23T15:10:08.977Z,8.38
2019-02-23T15:13:34.440Z,11.57
2019-02-23T15:16:38.636Z,14.38
2019-02-23T15:20:03.951Z,11.25
2019-02-23T15:22:59.839Z,7.92
2019-02-23T15:26:04.846Z,7.30
2019-02-23T15:29:27.237Z,9.00
2019-02-23T15:32:26.269Z,6.47
2019-02-23T15:35:10.169Z,6.72
2019-02-23T15:38:13.214Z,7.72
2019-02-23T15:41:13.159Z,7.25
2019-02-23T15:44:06.998Z,7.87
2019-02-23T15:47:02.327Z,6.60
2019-02-23T15:49:41.164Z,11.20
2019-02-23T15:52:10.553Z,10.20
2019-02-23T15:54:39.980Z,7.40
2019-02-23T15:57:09.373Z,9.45
2019-02-23T15:59:40.525Z,16.57
2019-02-23T16:02:18.978Z,15.03
2019-02-23T16:04:48.332Z,10.50
2019-02-23T16:07:17.697Z,25.03
2019-02-23T16:09:47.136Z,24.85
2019-02-23T16:12:16.720Z,17.40
2019-02-23T16:14:46.088Z,11.97
2019-02-23T16:17:15.456Z,10.90
2019-02-23T16:19:44.796Z,12.30
2019-02-23T16:37:54.321Z,13.78
2019-02-23T16:40:33.007Z,8.60
2019-02-23T16:43:15.240Z,9.65
2019-02-23T16:45:56.828Z,8.53
2019-02-23T16:50:10.772Z,7.53
2019-02-23T16:52:09.301Z,10.65
2019-02-23T16:55:07.735Z,8.63
2019-02-23T17:04:53.460Z,9.90
2019-02-23T17:10:16.196Z,13.90
2019-02-23T17:13:47.861Z,14.55
2019-02-23T17:16:41.629Z,15.35
2019-02-23T17:19:44.456Z,15.08
2019-02-23T17:22:39.940Z,17.03
2019-02-23T17:25:36.115Z,15.18
2019-02-23T17:28:10.871Z,20.88
2019-02-23T17:36:52.876Z,15.35
2019-02-23T17:39:34.068Z,17.27
2019-02-23T17:42:27.730Z,17.42
2019-02-23T17:45:15.167Z,15.68
2019-02-23T17:48:09.164Z,16.25
2019-02-23T17:51:16.374Z,16.75
2019-02-23T18:03:31.536Z,51.05
2019-02-23T18:06:14.006Z,24.98
2019-02-23T18:09:07.998Z,20.92
2019-02-23T18:11:40.908Z,19.98
2019-02-23T18:14:11.056Z,20.20
2019-02-23T18:16:47.759Z,20.20
2019-02-23T18:19:24.247Z,19.00
2019-02-23T18:21:53.886Z,19.30
2019-02-23T18:24:39.374Z,17.48
2019-02-23T18:27:12.837Z,20.28
2019-02-23T18:29:46.455Z,19.45
2019-02-23T18:32:28.141Z,19.45
2019-02-23T18:35:09.764Z,19.95
2019-02-23T18:37:55.478Z,19.73
2019-02-23T18:40:40.178Z,18.90
2019-02-23T18:43:23.586Z,20.05
2019-02-23T18:46:10.274Z,18.67
2019-02-23T18:48:42.545Z,18.85
2019-02-23T18:54:14.597Z,18.90
2019-02-23T18:56:47.225Z,19.12
2019-02-23T18:59:27.466Z,18.87
2019-02-23T19:02:20.328Z,19.52
2019-02-23T19:04:53.251Z,19.02
2019-02-23T19:09:50.828Z,17.80
2019-02-23T19:12:26.710Z,20.25
2019-02-23T19:15:53.562Z,20.05
2019-02-23T19:19:32.369Z,32.50
2019-02-23T19:22:51.290Z,19.85
2019-02-23T19:26:07.834Z,21.25
2019-02-23T19:29:13.816Z,22.75
2019-02-23T19:32:09.609Z,21.37
2019-02-23T19:34:39.096Z,19.07
2019-02-23T19:37:08.512Z,18.10
2019-02-23T19:39:37.859Z,18.60
2019-02-23T19:42:08.203Z,18.95
2019-02-23T19:44:37.504Z,18.57
2019-02-23T19:47:28.139Z,17.80
2019-02-23T19:50:00.949Z,22.17
2019-02-23T19:52:30.475Z,19.45
2019-02-23T19:54:59.810Z,17.10
2019-02-23T19:57:29.315Z,17.25
2019-02-23T19:59:58.634Z,16.80
2019-02-23T20:02:28.016Z,15.35
2019-02-23T20:04:57.397Z,15.43
2019-02-23T20:07:26.768Z,15.63
2019-02-23T20:09:56.203Z,15.68
2019-02-23T20:12:25.508Z,17.07
2019-02-23T20:14:55.178Z,24.63
2019-02-23T20:17:24.548Z,16.42
2019-02-23T20:19:53.908Z,16.00
2019-02-23T20:22:23.374Z,14.25
2019-02-23T20:24:52.841Z,14.73
2019-02-23T20:27:22.305Z,15.78
2019-02-23T20:29:51.652Z,15.65
2019-02-23T20:32:20.968Z,14.78
2019-02-23T20:34:50.467Z,14.83
2019-02-23T20:37:19.824Z,14.45
2019-02-23T20:39:49.179Z,14.40
2019-02-23T20:42:18.909Z,13.13
2019-02-23T20:44:48.207Z,14.28
2019-02-23T20:47:17.621Z,13.35
2019-02-23T20:49:46.983Z,13.65
2019-02-23T20:52:16.282Z,12.40
2019-02-23T20:54:45.610Z,12.95
2019-02-23T20:57:14.943Z,12.95
2019-02-23T20:59:44.235Z,13.20
2019-02-23T21:02:13.538Z,13.90
2019-02-23T21:04:43.000Z,13.65
2019-02-23T21:07:12.307Z,13.50
2019-02-23T21:09:41.715Z,12.40
2019-02-23T21:12:11.024Z,12.90
2019-02-23T21:14:40.391Z,11.75
2019-02-23T21:17:09.709Z,11.65
2019-02-23T21:19:39.071Z,11.00
2019-02-23T21:22:08.403Z,11.83
2019-02-23T21:24:37.732Z,11.53
2019-02-23T21:27:12.807Z,11.75
2019-02-23T21:29:38.197Z,11.15
2019-02-23T21:32:07.609Z,11.00
2019-02-23T21:34:36.987Z,10.90
2019-02-23T21:37:06.376Z,11.53
2019-02-23T21:39:35.715Z,11.22
2019-02-23T21:42:05.033Z,10.88
2019-02-23T21:44:34.384Z,10.45
2019-02-23T21:47:03.713Z,10.70
2019-02-23T21:49:33.009Z,10.75
2019-02-23T21:52:02.366Z,11.18
2019-02-23T21:54:31.661Z,10.45
2019-02-23T21:57:01.029Z,10.40
2019-02-23T21:59:30.404Z,10.13
2019-02-23T22:01:59.737Z,10.60
2019-02-23T22:04:29.034Z,10.15
2019-02-23T22:06:58.394Z,10.75
2019-02-23T22:09:27.641Z,9.78
2019-02-23T22:11:56.930Z,9.88
2019-02-23T22:14:26.255Z,10.85
2019-02-23T22:16:55.545Z,11.07
2019-02-23T22:19:24.885Z,10.03
2019-02-23T22:21:54.168Z,10.40
2019-02-23T22:24:23.509Z,10.45
2019-02-23T22:26:52.793Z,10.88
2019-02-23T22:29:22.074Z,9.70
2019-02-23T22:31:51.346Z,10.05
2019-02-23T22:34:20.695Z,10.20
2019-02-23T22:36:49.985Z,10.30
2019-02-23T22:39:19.277Z,9.88
2019-02-23T22:41:49.852Z,10.00
2019-02-23T22:44:19.229Z,10.45
2019-02-23T22:46:48.511Z,9.88
2019-02-23T22:49:17.797Z,10.13
2019-02-23T22:51:47.084Z,10.68
2019-02-23T22:54:16.392Z,10.82
2019-02-23T22:56:45.656Z,10.38
2019-02-23T22:59:14.959Z,10.85
2019-02-23T23:01:44.422Z,10.50
2019-02-23T23:04:13.740Z,10.63
2019-02-23T23:06:43.012Z,10.60
2019-02-23T23:09:19.550Z,10.13
2019-02-23T23:11:48.841Z,11.10
2019-02-23T23:14:18.158Z,10.90
2019-02-23T23:16:47.438Z,10.75
2019-02-23T23:19:16.784Z,10.65
2019-02-23T23:21:46.060Z,11.25
2019-02-23T23:24:15.325Z,11.00
2019-02-23T23:26:44.599Z,11.20
2019-02-23T23:29:13.897Z,11.93
2019-02-23T23:31:43.195Z,11.60
2019-02-23T23:34:12.477Z,11.05
2019-02-23T23:36:41.778Z,11.38
2019-02-23T23:39:11.013Z,11.28
2019-02-23T23:41:40.270Z,11.08
2019-02-23T23:44:09.531Z,11.48
2019-02-23T23:46:38.795Z,11.43
2019-02-23T23:49:08.048Z,10.80
2019-02-23T23:51:37.322Z,10.65
2019-02-23T23:54:06.616Z,11.18
2019-02-23T23:56:35.880Z,11.95
2019-02-23T23:59:05.134Z,12.07
